createdAt,value
2019-05-05T00:01:29.914Z,87.12
2019-05-05T00:03:29.753Z,87.10
2019-05-05T00:05:29.699Z,86.85
2019-05-05T00:07:29.790Z,86.84
2019-05-05T00:09:29.785Z,87.05
2019-05-05T00:11:29.694Z,86.84
2019-05-05T00:13:29.915Z,86.72
2019-05-05T00:15:29.694Z,86.97
2019-05-05T00:17:29.940Z,86.79
2019-05-05T00:19:33.027Z,86.84
2019-05-05T00:21:29.549Z,86.87
2019-05-05T00:23:29.560Z,86.71
2019-05-05T00:25:29.783Z,86.70
2019-05-05T00:27:29.943Z,86.72
2019-05-05T00:29:29.803Z,86.94
2019-05-05T00:31:30.172Z,86.60
2019-05-05T00:33:29.928Z,86.88
2019-05-05T00:35:29.875Z,86.75
2019-05-05T00:37:29.749Z,86.82
2019-05-05T00:39:29.557Z,86.97
2019-05-05T00:41:29.872Z,87.07
2019-05-05T00:43:29.890Z,86.97
2019-05-05T00:45:29.907Z,86.99
2019-05-05T00:47:29.829Z,86.97
2019-05-05T00:49:42.798Z,87.06
2019-05-05T00:51:29.929Z,86.84
2019-05-05T00:53:29.842Z,86.87
2019-05-05T00:55:30.057Z,87.12
2019-05-05T00:57:29.998Z,86.88
2019-05-05T00:59:29.572Z,87.03
2019-05-05T01:01:29.740Z,86.95
2019-05-05T01:03:29.589Z,86.66
2019-05-05T01:05:29.743Z,87.02
2019-05-05T01:07:29.720Z,87.30
2019-05-05T01:09:29.833Z,87.47
2019-05-05T01:11:29.755Z,87.63
2019-05-05T01:13:29.862Z,87.47
2019-05-05T01:15:29.663Z,87.21
2019-05-05T01:17:29.897Z,87.30
2019-05-05T01:19:29.882Z,87.32
2019-05-05T01:21:30.108Z,87.03
2019-05-05T01:23:29.861Z,87.29
2019-05-05T01:25:29.925Z,86.90
2019-05-05T01:27:29.824Z,87.25
2019-05-05T01:29:29.945Z,87.26
2019-05-05T01:31:29.903Z,87.13
2019-05-05T01:33:29.965Z,86.93
2019-05-05T01:35:29.977Z,87.08
2019-05-05T01:37:29.943Z,87.31
2019-05-05T01:39:29.767Z,87.25
2019-05-05T01:41:29.713Z,87.21
2019-05-05T01:43:29.728Z,87.20
2019-05-05T01:45:29.849Z,87.21
2019-05-05T01:47:29.733Z,87.51
2019-05-05T01:49:29.811Z,87.30
2019-05-05T01:51:29.770Z,87.65
2019-05-05T01:53:29.801Z,87.36
2019-05-05T01:55:29.995Z,87.54
2019-05-05T01:57:29.655Z,87.54
2019-05-05T01:59:29.714Z,87.71
2019-05-05T02:01:29.860Z,87.34
2019-05-05T02:03:29.947Z,87.89
2019-05-05T02:05:29.748Z,87.35
2019-05-05T02:07:29.817Z,87.80
2019-05-05T02:09:29.771Z,87.57
2019-05-05T02:11:29.983Z,87.68
2019-05-05T02:13:29.995Z,88.18
2019-05-05T02:15:30.008Z,87.99
2019-05-05T02:17:29.951Z,88.31
2019-05-05T02:19:30.030Z,88.40
2019-05-05T02:21:29.813Z,88.41
2019-05-05T02:23:29.848Z,88.49
2019-05-05T02:25:30.072Z,88.95
2019-05-05T02:27:29.645Z,88.65
2019-05-05T02:29:29.920Z,89.01
2019-05-05T02:31:29.998Z,89.04
2019-05-05T02:33:29.824Z,89.20
2019-05-05T02:35:29.835Z,89.00
2019-05-05T02:37:30.017Z,89.23
2019-05-05T02:39:29.845Z,89.25
2019-05-05T02:41:29.837Z,89.53
2019-05-05T02:43:30.005Z,89.17
2019-05-05T02:45:29.964Z,89.24
2019-05-05T02:47:29.921Z,89.11
2019-05-05T02:49:30.002Z,89.79
2019-05-05T02:51:29.819Z,89.67
2019-05-05T02:53:30.034Z,89.91
2019-05-05T02:55:32.256Z,89.81
2019-05-05T02:57:29.946Z,90.00
2019-05-05T02:59:30.060Z,90.00
2019-05-05T03:01:29.973Z,90.22
2019-05-05T03:03:29.745Z,89.95
2019-05-05T03:05:29.894Z,90.10
2019-05-05T03:07:30.005Z,90.60
2019-05-05T03:09:29.686Z,90.52
2019-05-05T03:11:29.883Z,90.44
2019-05-05T03:13:29.878Z,90.12
2019-05-05T03:15:29.764Z,90.66
2019-05-05T03:17:29.984Z,90.59
2019-05-05T03:19:30.086Z,90.53
2019-05-05T03:21:30.178Z,91.14
2019-05-05T03:23:29.762Z,90.89
2019-05-05T03:25:30.011Z,90.80
2019-05-05T03:27:29.917Z,91.10
2019-05-05T03:29:29.829Z,91.53
2019-05-05T03:31:30.042Z,91.39
2019-05-05T03:33:29.959Z,91.75
2019-05-05T03:35:29.759Z,91.80
2019-05-05T03:37:29.759Z,91.71
2019-05-05T03:39:29.761Z,91.57
2019-05-05T03:41:30.099Z,91.56
2019-05-05T03:43:30.317Z,91.44
2019-05-05T03:45:29.922Z,91.59
2019-05-05T03:47:30.135Z,91.69
2019-05-05T03:49:31.318Z,91.67
2019-05-05T03:51:29.686Z,91.87
2019-05-05T03:53:29.699Z,91.38
2019-05-05T03:55:29.774Z,91.72
2019-05-05T03:57:29.989Z,91.51
2019-05-05T03:59:29.929Z,91.80
2019-05-05T04:01:30.024Z,91.54
2019-05-05T04:03:30.124Z,91.65
2019-05-05T04:05:29.932Z,91.63
2019-05-05T04:07:29.740Z,91.71
2019-05-05T04:09:29.753Z,91.71
2019-05-05T04:11:29.717Z,91.63
2019-05-05T04:13:30.086Z,92.12
2019-05-05T04:15:30.038Z,91.92
2019-05-05T04:17:30.108Z,91.93
2019-05-05T04:19:30.182Z,91.91
2019-05-05T04:21:33.547Z,92.01
2019-05-05T04:23:29.831Z,91.59
2019-05-05T04:25:29.937Z,91.96
2019-05-05T04:27:30.370Z,91.52
2019-05-05T04:29:29.763Z,91.92
2019-05-05T04:31:29.881Z,91.58
2019-05-05T04:33:29.898Z,91.93
2019-05-05T04:35:30.005Z,91.85
2019-05-05T04:37:29.976Z,91.72
2019-05-05T04:39:29.771Z,92.06
2019-05-05T04:41:29.833Z,91.91
2019-05-05T04:43:29.810Z,91.63
2019-05-05T04:45:29.791Z,91.84
2019-05-05T04:47:29.886Z,91.83
2019-05-05T04:49:30.292Z,91.81
2019-05-05T04:51:29.892Z,91.10
2019-05-05T04:53:30.525Z,90.56
2019-05-05T04:55:30.016Z,90.21
2019-05-05T04:57:29.770Z,89.56
2019-05-05T04:59:29.905Z,88.71
2019-05-05T05:01:29.924Z,88.22
2019-05-05T05:03:30.164Z,87.92
2019-05-05T05:05:30.181Z,86.72
2019-05-05T05:07:29.987Z,86.18
2019-05-05T05:09:30.010Z,85.92
2019-05-05T05:11:29.798Z,84.79
2019-05-05T05:13:29.800Z,84.18
2019-05-05T05:15:29.826Z,83.92
2019-05-05T05:17:29.765Z,81.72
2019-05-05T05:19:29.952Z,81.90
2019-05-05T05:21:29.966Z,81.00
2019-05-05T05:23:30.182Z,80.39
2019-05-05T05:25:30.093Z,79.36
2019-05-05T05:27:29.984Z,79.24
2019-05-05T05:29:30.016Z,79.16
2019-05-05T05:31:30.019Z,76.92
2019-05-05T05:33:29.826Z,76.12
2019-05-05T05:35:30.109Z,76.12
2019-05-05T05:37:30.158Z,75.73
2019-05-05T05:39:29.959Z,74.71
2019-05-05T05:41:30.183Z,75.58
2019-05-05T05:43:30.404Z,74.70
2019-05-05T05:45:30.208Z,74.10
2019-05-05T05:47:30.114Z,73.19
2019-05-05T05:49:29.917Z,72.93
2019-05-05T05:51:30.140Z,72.30
2019-05-05T05:53:29.949Z,72.01
2019-05-05T05:55:29.920Z,70.81
2019-05-05T05:57:30.069Z,71.17
2019-05-05T05:59:30.079Z,71.14
2019-05-05T06:01:30.250Z,70.56
2019-05-05T06:03:29.897Z,69.69
2019-05-05T06:05:29.881Z,69.66
2019-05-05T06:07:30.131Z,69.72
2019-05-05T06:09:29.895Z,69.75
2019-05-05T06:11:29.943Z,69.55
2019-05-05T06:13:30.094Z,68.93
2019-05-05T06:15:30.084Z,68.22
2019-05-05T06:17:30.081Z,66.89
2019-05-05T06:19:30.158Z,66.47
2019-05-05T06:21:30.114Z,66.06
2019-05-05T06:23:30.016Z,66.32
2019-05-05T06:25:30.166Z,65.86
2019-05-05T06:27:30.139Z,64.80
2019-05-05T06:29:30.154Z,65.11
2019-05-05T06:31:29.959Z,65.48
2019-05-05T06:33:30.040Z,64.32
2019-05-05T06:35:30.230Z,63.60
2019-05-05T06:37:30.076Z,62.34
2019-05-05T06:39:30.407Z,63.00
2019-05-05T06:41:30.273Z,60.94
2019-05-05T06:43:30.082Z,61.04
2019-05-05T06:45:30.192Z,60.07
2019-05-05T06:47:30.265Z,59.78
2019-05-05T06:49:31.354Z,60.63
2019-05-05T06:51:30.185Z,60.54
2019-05-05T06:53:30.194Z,60.75
2019-05-05T06:55:30.205Z,61.37
2019-05-05T06:57:30.218Z,60.12
2019-05-05T06:59:30.126Z,60.09
2019-05-05T07:01:30.283Z,59.71
2019-05-05T07:03:30.291Z,59.48
2019-05-05T07:05:30.118Z,59.24
2019-05-05T07:07:30.168Z,59.16
2019-05-05T07:09:30.150Z,58.95
2019-05-05T07:11:30.601Z,57.32
2019-05-05T07:13:30.115Z,56.65
2019-05-05T07:15:30.222Z,55.12
2019-05-05T07:17:30.429Z,55.38
2019-05-05T07:19:30.237Z,55.16
2019-05-05T07:21:30.252Z,55.11
2019-05-05T07:23:30.471Z,55.85
2019-05-05T07:25:40.629Z,54.98
2019-05-05T07:27:30.037Z,55.57
2019-05-05T07:29:30.094Z,55.44
2019-05-05T07:31:30.287Z,53.93
2019-05-05T07:33:30.531Z,53.38
2019-05-05T07:35:30.336Z,52.51
2019-05-05T07:37:30.703Z,52.05
2019-05-05T07:39:30.356Z,52.78
2019-05-05T07:41:30.476Z,53.29
2019-05-05T07:43:30.062Z,53.14
2019-05-05T07:45:30.088Z,52.60
2019-05-05T07:47:30.197Z,52.67
2019-05-05T07:49:30.420Z,53.05
2019-05-05T07:51:30.221Z,51.50
2019-05-05T07:53:30.234Z,50.51
2019-05-05T07:55:30.158Z,51.08
2019-05-05T07:57:30.461Z,49.75
2019-05-05T07:59:30.392Z,50.78
2019-05-05T08:01:30.291Z,51.59
2019-05-05T08:03:30.301Z,53.53
2019-05-05T08:05:30.289Z,54.06
2019-05-05T08:07:30.088Z,54.99
2019-05-05T08:09:30.131Z,55.19
2019-05-05T08:11:30.231Z,54.92
2019-05-05T08:13:30.270Z,55.86
2019-05-05T08:15:30.365Z,54.63
2019-05-05T08:17:30.141Z,54.62
2019-05-05T08:19:30.188Z,53.59
2019-05-05T08:21:30.302Z,53.46
2019-05-05T08:23:32.674Z,54.32
2019-05-05T08:25:37.403Z,54.58
2019-05-05T08:27:30.252Z,53.48
2019-05-05T08:29:30.249Z,52.39
2019-05-05T08:31:30.237Z,52.29
2019-05-05T08:33:30.270Z,52.55
2019-05-05T08:35:30.427Z,52.18
2019-05-05T08:37:30.249Z,52.04
2019-05-05T08:39:30.291Z,52.25
2019-05-05T08:41:30.317Z,52.01
2019-05-05T08:43:30.525Z,52.38
2019-05-05T08:45:30.336Z,53.50
2019-05-05T08:47:30.305Z,53.01
2019-05-05T08:49:30.322Z,52.35
2019-05-05T08:51:30.624Z,52.29
2019-05-05T08:53:44.132Z,51.91
2019-05-05T08:55:30.900Z,51.55
2019-05-05T08:57:30.716Z,51.55
2019-05-05T08:59:30.930Z,51.77
2019-05-05T09:01:30.933Z,51.63
2019-05-05T09:03:30.589Z,51.42
2019-05-05T09:05:30.773Z,51.03
2019-05-05T09:07:30.661Z,50.87
2019-05-05T09:09:30.782Z,52.00
2019-05-05T09:11:30.894Z,51.61
2019-05-05T09:13:31.213Z,52.47
2019-05-05T09:15:30.825Z,52.80
2019-05-05T09:17:30.756Z,53.47
2019-05-05T09:19:30.804Z,54.80
2019-05-05T09:21:30.849Z,54.41
2019-05-05T09:23:30.660Z,52.75
2019-05-05T09:25:30.662Z,51.85
2019-05-05T09:27:30.994Z,51.33
2019-05-05T09:29:30.998Z,49.43
2019-05-05T09:31:30.791Z,51.13
2019-05-05T09:33:31.026Z,51.86
2019-05-05T09:35:30.740Z,52.31
2019-05-05T09:37:30.872Z,53.92
2019-05-05T09:39:30.950Z,54.44
2019-05-05T09:41:30.732Z,54.78
2019-05-05T09:43:30.786Z,54.88
2019-05-05T09:45:30.900Z,55.50
2019-05-05T09:47:31.012Z,55.53
2019-05-05T09:49:31.015Z,54.85
2019-05-05T09:51:30.828Z,56.49
2019-05-05T09:53:30.832Z,53.25
2019-05-05T09:55:31.065Z,52.26
2019-05-05T09:57:31.062Z,51.61
2019-05-05T09:59:30.864Z,49.90
2019-05-05T10:01:31.087Z,49.45
2019-05-05T10:03:30.685Z,50.80
2019-05-05T10:05:31.110Z,52.37
2019-05-05T10:07:30.847Z,53.08
2019-05-05T10:09:30.892Z,53.76
2019-05-05T10:11:30.949Z,53.72
2019-05-05T10:13:30.943Z,53.16
2019-05-05T10:15:30.719Z,53.75
2019-05-05T10:17:30.976Z,53.91
2019-05-05T10:19:30.881Z,53.73
2019-05-05T10:21:30.975Z,53.72
2019-05-05T10:23:30.896Z,52.42
2019-05-05T10:25:31.016Z,52.49
2019-05-05T10:27:42.634Z,51.78
2019-05-05T10:29:30.955Z,51.18
2019-05-05T10:31:30.953Z,49.00
2019-05-05T10:33:30.970Z,48.68
2019-05-05T10:35:30.982Z,49.00
2019-05-05T10:37:30.895Z,48.77
2019-05-05T10:39:31.110Z,48.25
2019-05-05T10:41:31.011Z,48.90
2019-05-05T10:43:30.817Z,49.57
2019-05-05T10:45:31.036Z,50.00
2019-05-05T10:47:30.807Z,50.02
2019-05-05T10:49:31.061Z,50.37
2019-05-05T10:51:30.869Z,50.00
2019-05-05T10:53:31.080Z,50.55
2019-05-05T10:55:30.965Z,50.46
2019-05-05T10:57:31.105Z,49.70
2019-05-05T10:59:30.811Z,49.40
2019-05-05T11:01:30.797Z,49.38
2019-05-05T11:03:31.034Z,49.74
2019-05-05T11:05:31.047Z,50.06
2019-05-05T11:07:30.874Z,49.88
2019-05-05T11:09:31.006Z,50.06
2019-05-05T11:11:30.906Z,50.10
2019-05-05T11:13:31.093Z,50.44
2019-05-05T11:15:30.827Z,50.63
2019-05-05T11:17:30.917Z,50.88
2019-05-05T11:19:30.913Z,51.18
2019-05-05T11:21:31.148Z,51.13
2019-05-05T11:23:31.042Z,51.55
2019-05-05T11:25:31.170Z,50.38
2019-05-05T11:27:30.935Z,50.17
2019-05-05T11:29:31.094Z,48.92
2019-05-05T11:31:30.894Z,49.22
2019-05-05T11:33:31.004Z,48.45
2019-05-05T11:35:31.160Z,48.05
2019-05-05T11:37:30.840Z,49.58
2019-05-05T11:39:30.767Z,49.41
2019-05-05T11:41:31.850Z,49.42
2019-05-05T11:43:30.965Z,48.90
2019-05-05T11:45:31.095Z,48.38
2019-05-05T11:47:33.711Z,46.17
2019-05-05T11:49:31.131Z,46.14
2019-05-05T11:51:31.022Z,46.31
2019-05-05T11:53:30.825Z,46.39
2019-05-05T11:55:31.145Z,45.51
2019-05-05T11:57:31.150Z,46.00
2019-05-05T11:59:31.157Z,46.76
2019-05-05T12:01:31.068Z,46.93
2019-05-05T12:03:31.075Z,47.30
2019-05-05T12:05:31.090Z,48.10
2019-05-05T12:07:30.854Z,48.60
2019-05-05T12:09:31.115Z,47.58
2019-05-05T12:11:30.926Z,47.30
2019-05-05T12:13:31.238Z,47.05
2019-05-05T12:15:30.819Z,47.06
2019-05-05T12:17:31.064Z,45.85
2019-05-05T12:19:30.826Z,46.54
2019-05-05T12:21:31.090Z,45.59
2019-05-05T12:23:35.554Z,45.18
2019-05-05T12:25:31.208Z,44.86
2019-05-05T12:27:31.117Z,44.72
2019-05-05T12:29:31.135Z,44.92
2019-05-05T12:31:31.150Z,44.65
2019-05-05T12:33:30.889Z,45.29
2019-05-05T12:35:31.014Z,45.63
2019-05-05T12:37:31.077Z,45.61
2019-05-05T12:39:31.088Z,45.67
2019-05-05T12:41:30.889Z,46.24
2019-05-05T12:43:31.235Z,46.22
2019-05-05T12:45:31.123Z,46.76
2019-05-05T12:47:31.231Z,46.89
2019-05-05T12:49:31.002Z,46.80
2019-05-05T12:51:31.157Z,47.01
2019-05-05T12:53:31.270Z,47.96
2019-05-05T12:55:39.043Z,48.40
2019-05-05T12:57:31.102Z,48.61
2019-05-05T12:59:31.209Z,48.87
2019-05-05T13:01:31.123Z,48.63
2019-05-05T13:03:31.135Z,48.64
2019-05-05T13:05:30.940Z,48.72
2019-05-05T13:07:30.945Z,49.50
2019-05-05T13:09:30.956Z,49.45
2019-05-05T13:11:30.969Z,49.51
2019-05-05T13:13:31.189Z,49.05
2019-05-05T13:15:30.992Z,48.64
2019-05-05T13:17:31.210Z,46.65
2019-05-05T13:19:31.014Z,47.00
2019-05-05T13:21:31.035Z,44.99
2019-05-05T13:23:31.043Z,43.57
2019-05-05T13:25:33.625Z,41.41
2019-05-05T13:27:31.178Z,41.48
2019-05-05T13:29:31.017Z,42.09
2019-05-05T13:31:33.634Z,42.38
2019-05-05T13:33:33.146Z,42.51
2019-05-05T13:35:31.110Z,43.22
2019-05-05T13:37:31.230Z,43.06
2019-05-05T13:39:31.238Z,43.60
2019-05-05T13:41:31.075Z,43.73
2019-05-05T13:43:31.038Z,44.79
2019-05-05T13:45:31.271Z,45.07
2019-05-05T13:47:34.242Z,45.89
2019-05-05T13:49:31.158Z,45.63
2019-05-05T13:51:31.304Z,45.80
2019-05-05T13:53:31.337Z,46.65
2019-05-05T13:55:31.325Z,47.01
2019-05-05T13:57:31.344Z,47.51
2019-05-05T13:59:31.261Z,47.97
2019-05-05T14:01:31.261Z,48.11
2019-05-05T14:03:31.380Z,47.90
2019-05-05T14:05:31.385Z,48.28
2019-05-05T14:07:30.994Z,48.48
2019-05-05T14:09:31.208Z,49.38
2019-05-05T14:11:31.214Z,49.37
2019-05-05T14:13:31.124Z,49.27
2019-05-05T14:15:31.451Z,49.15
2019-05-05T14:17:31.166Z,49.15
2019-05-05T14:19:31.396Z,49.09
2019-05-05T14:21:31.068Z,48.97
2019-05-05T14:23:31.387Z,49.05
2019-05-05T14:25:31.305Z,48.67
2019-05-05T14:27:31.309Z,48.51
2019-05-05T14:29:31.334Z,48.70
2019-05-05T14:31:31.129Z,48.02
2019-05-05T14:33:34.127Z,47.61
2019-05-05T14:35:31.362Z,46.94
2019-05-05T14:37:31.171Z,46.75
2019-05-05T14:39:31.135Z,46.51
2019-05-05T14:41:31.394Z,45.95
2019-05-05T14:43:31.522Z,45.51
2019-05-05T14:45:33.990Z,45.36
2019-05-05T14:47:33.450Z,45.19
2019-05-05T14:49:31.233Z,43.86
2019-05-05T14:51:34.183Z,44.24
2019-05-05T14:53:31.058Z,43.41
2019-05-05T14:55:31.176Z,43.55
2019-05-05T14:57:30.999Z,43.89
2019-05-05T14:59:31.295Z,44.28
2019-05-05T15:01:31.069Z,44.50
2019-05-05T15:03:31.329Z,45.64
2019-05-05T15:05:31.288Z,47.04
2019-05-05T15:07:33.828Z,47.47
2019-05-05T15:09:33.479Z,48.43
2019-05-05T15:11:31.374Z,49.00
2019-05-05T15:13:31.278Z,49.02
2019-05-05T15:15:31.388Z,49.56
2019-05-05T15:17:33.755Z,50.21
2019-05-05T15:19:31.424Z,49.62
2019-05-05T15:21:31.217Z,50.33
2019-05-05T15:23:31.134Z,50.24
2019-05-05T15:25:31.455Z,50.22
2019-05-05T15:27:31.456Z,50.19
2019-05-05T15:29:31.371Z,50.06
2019-05-05T15:31:31.382Z,49.46
2019-05-05T15:33:31.174Z,49.22
2019-05-05T15:35:31.337Z,50.00
2019-05-05T15:37:31.416Z,49.36
2019-05-05T15:39:33.524Z,48.75
2019-05-05T15:41:31.395Z,48.30
2019-05-05T15:43:31.250Z,48.92
2019-05-05T15:45:31.256Z,48.68
2019-05-05T15:47:31.291Z,48.73
2019-05-05T15:49:32.492Z,48.20
2019-05-05T15:51:31.396Z,48.17
2019-05-05T15:53:31.414Z,48.60
2019-05-05T15:55:31.423Z,48.18
2019-05-05T15:57:31.233Z,47.67
2019-05-05T15:59:31.442Z,46.80
2019-05-05T16:01:31.291Z,46.17
2019-05-05T16:03:32.525Z,45.00
2019-05-05T16:05:31.306Z,44.56
2019-05-05T16:07:33.284Z,44.54
2019-05-05T16:09:31.262Z,43.85
2019-05-05T16:11:31.490Z,43.25
2019-05-05T16:13:35.090Z,42.81
2019-05-05T16:15:31.313Z,42.04
2019-05-05T16:17:33.298Z,42.21
2019-05-05T16:19:31.368Z,43.53
2019-05-05T16:21:31.256Z,44.30
2019-05-05T16:23:31.381Z,44.26
2019-05-05T16:25:32.203Z,44.46
2019-05-05T16:27:33.494Z,44.74
2019-05-05T16:29:31.428Z,45.38
2019-05-05T16:31:31.424Z,45.74
2019-05-05T16:33:33.482Z,45.71
2019-05-05T16:35:31.187Z,46.68
2019-05-05T16:37:33.520Z,47.78
2019-05-05T16:39:33.432Z,50.33
2019-05-05T16:41:31.267Z,50.18
2019-05-05T16:43:31.295Z,51.20
2019-05-05T16:45:31.448Z,52.14
2019-05-05T16:47:33.687Z,52.69
2019-05-05T16:49:31.237Z,53.17
2019-05-05T16:51:34.805Z,53.29
2019-05-05T16:53:31.456Z,52.51
2019-05-05T16:55:31.155Z,52.47
2019-05-05T16:57:36.114Z,52.02
2019-05-05T16:59:34.117Z,51.79
2019-05-05T17:01:35.655Z,51.80
2019-05-05T17:03:32.672Z,52.14
2019-05-05T17:05:34.592Z,52.86
2019-05-05T17:07:31.537Z,54.43
2019-05-05T17:09:31.550Z,56.53
2019-05-05T17:11:33.555Z,56.19
2019-05-05T17:13:33.486Z,58.23
2019-05-05T17:15:35.224Z,58.10
2019-05-05T17:17:33.820Z,59.53
2019-05-05T17:19:31.508Z,61.00
2019-05-05T17:21:31.427Z,61.21
2019-05-05T17:23:34.037Z,61.75
2019-05-05T17:25:31.551Z,62.06
2019-05-05T17:27:44.197Z,62.73
2019-05-05T17:29:31.353Z,63.47
2019-05-05T17:31:33.851Z,64.05
2019-05-05T17:33:33.769Z,65.31
2019-05-05T17:35:33.656Z,65.47
2019-05-05T17:37:33.458Z,67.03
2019-05-05T17:39:31.421Z,68.07
2019-05-05T17:41:31.435Z,68.56
2019-05-05T17:43:31.367Z,69.91
2019-05-05T17:45:31.256Z,70.93
2019-05-05T17:47:34.115Z,70.86
2019-05-05T17:49:31.227Z,71.71
2019-05-05T17:51:33.874Z,72.39
2019-05-05T17:53:31.605Z,72.87
2019-05-05T17:55:33.658Z,73.04
2019-05-05T17:57:34.551Z,73.84
2019-05-05T17:59:31.335Z,74.21
2019-05-05T18:01:33.639Z,75.04
2019-05-05T18:03:34.103Z,76.01
2019-05-05T18:05:31.675Z,75.34
2019-05-05T18:07:31.479Z,76.11
2019-05-05T18:09:31.236Z,75.95
2019-05-05T18:11:31.471Z,76.74
2019-05-05T18:13:31.521Z,76.36
2019-05-05T18:15:31.526Z,77.25
2019-05-05T18:17:31.546Z,76.96
2019-05-05T18:19:34.003Z,77.41
2019-05-05T18:21:32.279Z,77.80
2019-05-05T18:23:31.604Z,77.59
2019-05-05T18:25:31.685Z,77.48
2019-05-05T18:27:31.378Z,77.87
2019-05-05T18:29:31.606Z,77.93
2019-05-05T18:31:33.519Z,78.60
2019-05-05T18:33:33.844Z,78.44
2019-05-05T18:35:31.639Z,79.63
2019-05-05T18:37:31.663Z,79.84
2019-05-05T18:39:34.272Z,79.18
2019-05-05T18:41:31.592Z,79.29
2019-05-05T18:43:31.696Z,80.02
2019-05-05T18:45:31.495Z,80.68
2019-05-05T18:47:31.349Z,80.71
2019-05-05T18:49:33.635Z,80.69
2019-05-05T18:51:31.407Z,81.34
2019-05-05T18:53:31.438Z,81.45
2019-05-05T18:55:31.456Z,81.33
2019-05-05T18:57:31.463Z,81.50
2019-05-05T18:59:33.478Z,82.62
2019-05-05T19:01:31.488Z,83.09
2019-05-05T19:03:33.674Z,83.24
2019-05-05T19:05:31.613Z,83.51
2019-05-05T19:07:33.579Z,83.69
2019-05-05T19:09:31.640Z,84.14
2019-05-05T19:11:31.442Z,83.60
2019-05-05T19:13:31.532Z,84.22
2019-05-05T19:15:31.482Z,84.37
2019-05-05T19:17:31.685Z,84.24
2019-05-05T19:19:31.406Z,84.35
2019-05-05T19:21:31.609Z,84.04
2019-05-05T19:23:33.820Z,84.38
2019-05-05T19:25:31.633Z,83.88
2019-05-05T19:27:33.580Z,83.65
2019-05-05T19:29:31.408Z,83.54
2019-05-05T19:31:32.123Z,82.97
2019-05-05T19:33:31.572Z,83.08
2019-05-05T19:35:43.587Z,82.58
2019-05-05T19:37:33.479Z,82.53
2019-05-05T19:39:31.407Z,82.66
2019-05-05T19:41:31.470Z,82.41
2019-05-05T19:43:33.891Z,82.39
2019-05-05T19:45:31.539Z,82.56
2019-05-05T19:47:31.318Z,82.34
2019-05-05T19:49:33.681Z,81.43
2019-05-05T19:51:31.367Z,81.44
2019-05-05T19:53:35.250Z,81.44
2019-05-05T19:55:31.584Z,81.11
2019-05-05T19:57:33.679Z,80.70
2019-05-05T19:59:33.803Z,80.38
2019-05-05T20:01:35.334Z,80.70
2019-05-05T20:03:31.877Z,79.93
2019-05-05T20:05:31.651Z,79.86
2019-05-05T20:07:31.324Z,79.63
2019-05-05T20:09:33.902Z,79.83
2019-05-05T20:11:31.324Z,79.64
2019-05-05T20:13:31.550Z,79.57
2019-05-05T20:15:33.620Z,79.78
2019-05-05T20:17:33.580Z,79.86
2019-05-05T20:19:31.640Z,79.66
2019-05-05T20:21:31.652Z,79.45
2019-05-05T20:23:31.657Z,79.81
2019-05-05T20:25:31.599Z,79.90
2019-05-05T20:27:31.594Z,79.66
2019-05-05T20:29:36.800Z,79.51
2019-05-05T20:31:31.658Z,79.70
2019-05-05T20:33:33.700Z,80.01
2019-05-05T20:35:31.143Z,80.04
2019-05-05T20:37:31.228Z,80.09
2019-05-05T20:39:31.588Z,80.28
2019-05-05T20:41:30.989Z,80.40
2019-05-05T20:43:30.940Z,80.26
2019-05-05T20:45:31.119Z,80.33
2019-05-05T20:47:31.193Z,80.53
2019-05-05T20:49:31.334Z,80.85
2019-05-05T20:51:31.355Z,80.83
2019-05-05T20:53:30.973Z,80.88
2019-05-05T20:55:31.033Z,81.27
2019-05-05T20:57:31.044Z,81.34
2019-05-05T20:59:31.391Z,81.45
2019-05-05T21:01:30.939Z,82.24
2019-05-05T21:03:31.401Z,82.29
2019-05-05T21:05:31.474Z,82.43
2019-05-05T21:07:31.099Z,82.43
2019-05-05T21:09:31.086Z,82.58
2019-05-05T21:11:31.341Z,82.67
2019-05-05T21:13:31.347Z,83.22
2019-05-05T21:15:31.205Z,83.15
2019-05-05T21:17:31.086Z,83.06
2019-05-05T21:19:31.182Z,82.66
2019-05-05T21:21:30.952Z,82.59
2019-05-05T21:23:31.192Z,82.36
2019-05-05T21:25:31.111Z,82.55
2019-05-05T21:27:31.236Z,82.27
2019-05-05T21:29:39.605Z,82.17
2019-05-05T21:31:31.349Z,82.10
2019-05-05T21:33:31.216Z,81.78
2019-05-05T21:35:31.292Z,81.52
2019-05-05T21:37:31.176Z,81.36
2019-05-05T21:39:31.233Z,81.31
2019-05-05T21:41:31.096Z,81.33
2019-05-05T21:43:31.249Z,81.04
2019-05-05T21:45:31.207Z,80.70
2019-05-05T21:47:31.239Z,81.20
2019-05-05T21:49:33.632Z,80.79
2019-05-05T21:51:31.059Z,80.61
2019-05-05T21:53:31.034Z,80.71
2019-05-05T21:55:31.377Z,80.29
2019-05-05T21:57:31.395Z,80.40
2019-05-05T21:59:31.199Z,80.04
2019-05-05T22:01:31.013Z,80.22
2019-05-05T22:03:31.269Z,79.99
2019-05-05T22:05:33.057Z,80.01
2019-05-05T22:07:33.518Z,79.80
2019-05-05T22:09:31.159Z,80.33
2019-05-05T22:11:31.066Z,79.70
2019-05-05T22:13:31.080Z,79.77
2019-05-05T22:15:31.296Z,79.79
2019-05-05T22:17:31.212Z,80.07
2019-05-05T22:19:31.215Z,79.97
2019-05-05T22:21:31.207Z,79.85
2019-05-05T22:23:31.236Z,80.05
2019-05-05T22:25:31.249Z,79.25
2019-05-05T22:27:31.263Z,79.25
2019-05-05T22:29:31.393Z,79.32
2019-05-05T22:31:31.185Z,79.10
2019-05-05T22:33:31.299Z,79.44
2019-05-05T22:35:31.101Z,79.16
2019-05-05T22:37:31.235Z,79.19
2019-05-05T22:39:33.656Z,79.05
2019-05-05T22:41:33.629Z,79.28
2019-05-05T22:43:31.150Z,78.58
2019-05-05T22:45:31.341Z,78.76
2019-05-05T22:47:31.187Z,79.01
2019-05-05T22:49:31.496Z,78.50
2019-05-05T22:51:31.157Z,78.62
2019-05-05T22:53:31.356Z,78.18
2019-05-05T22:55:31.222Z,78.14
2019-05-05T22:57:31.306Z,78.74
2019-05-05T22:59:31.251Z,78.31
2019-05-05T23:01:31.056Z,78.47
2019-05-05T23:03:31.285Z,78.56
2019-05-05T23:05:31.284Z,78.83
2019-05-05T23:07:31.076Z,78.62
2019-05-05T23:09:31.301Z,78.87
2019-05-05T23:11:31.039Z,79.17
2019-05-05T23:13:31.224Z,79.03
2019-05-05T23:15:31.237Z,79.13
2019-05-05T23:17:34.019Z,79.16
2019-05-05T23:19:33.570Z,78.84
2019-05-05T23:21:31.583Z,78.97
2019-05-05T23:23:31.178Z,78.89
2019-05-05T23:25:31.162Z,79.00
2019-05-05T23:27:31.261Z,79.03
2019-05-05T23:29:31.321Z,78.74
2019-05-05T23:31:31.093Z,79.06
2019-05-05T23:33:31.345Z,78.99
2019-05-05T23:35:31.283Z,78.49
2019-05-05T23:37:31.304Z,78.56
2019-05-05T23:39:31.169Z,78.74
2019-05-05T23:41:31.083Z,78.58
2019-05-05T23:43:31.264Z,78.65
2019-05-05T23:45:31.510Z,78.52
2019-05-05T23:47:31.142Z,78.00
2019-05-05T23:49:31.339Z,77.85
2019-05-05T23:51:31.143Z,78.45
2019-05-05T23:53:31.358Z,78.17
2019-05-05T23:55:31.279Z,78.24
2019-05-05T23:57:31.591Z,77.98
2019-05-05T23:59:31.139Z,77.94
